Time;durP1;ratioP1;P1;durP2;ratioP2;P2;SDS_P1;SDS_P2;PMS_P1;PMS_P2;Temp;Humidity;BMP_temperature;BMP_pressure;BME280_temperature;BME280_humidity;BME280_pressure;Samples;Min_cycle;Max_cycle;Signal;HPM_P1;HPM_P2
2022/06/03 03:35:58;;;;;;;;;;;;;;;8.57;87.77;99638.56;6273975;22;20403;-93
2022/06/03 03:42:12;;;;;;;;;;;;;;;8.73;87.33;99628.28;6243553;23;19912;-90
2022/06/03 03:45:12;;;;;;;;;;;;;;;;;;;;;
2022/06/03 03:48:03;;;;;;;;;;;;;;;8.68;87.13;99614.38;6242041;23;19998;-93
2022/06/03 03:50:57;;;;;;;;;;;;;;;8.72;87.12;99616.00;6154298;23;20065;-92
2022/06/03 06:11:57;;;;;;;;;;;;;;;8.47;87.98;99627.50;6211625;23;19915;-88
2022/06/03 06:47:44;;;;;;;;;;;;;;;;;;;;;
2022/06/03 06:57:22;;;;;;;;;;;;;;;;;;;;;
2022/06/03 07:03:17;;;;;;;;;;;;;;;8.75;88.45;99593.88;5978951;24;20049;-89
2022/06/03 07:06:25;;;;;;;;;;;;;;;9.13;88.63;99594.19;6009675;23;20310;-93
2022/06/03 07:09:29;;;;;;;;;;;;;;;;;;;;;
2022/06/03 07:20:27;;;;;;;;;;;;;;;9.03;88.77;99556.66;6275983;22;19927;-90
2022/06/03 07:22:56;;;;;;;;;;;;;;;9.04;88.47;99551.31;6278518;22;19915;-88
2022/06/03 07:25:39;;;;;;;;;;;;;;;9.17;88.20;99554.31;6252272;22;19911;-91
2022/06/03 07:28:23;;;;;;;;;;;;;;;9.21;87.90;99555.06;6250739;22;19911;-93
2022/06/03 07:30:48;;;;;;;;;;;;;;;9.01;88.13;99546.16;6279110;22;19918;-92
2022/06/03 07:33:35;;;;;;;;;;;;;;;9.01;88.87;99546.16;6276178;22;19911;-90
2022/06/03 07:36:10;;;;;;;;;;;;;;;9.12;89.16;99540.44;6278284;22;19965;-93
2022/06/03 07:38:43;;;;;;;;;;;;;;;9.10;88.84;99534.34;6277517;22;19911;-89
2022/06/03 07:41:14;;;;;;;;;;;;;;;9.10;89.05;99537.00;6250607;22;19955;-89
2022/06/03 07:43:39;;;;;;;;;;;;;;;9.09;89.29;99527.34;6250330;22;20002;-90
2022/06/03 07:46:25;;;;;;;;;;;;;;;9.12;89.31;99529.84;6277441;22;19950;-91
2022/06/03 07:48:51;;;;;;;;;;;;;;;9.15;89.32;99524.44;6247827;22;19911;-90
2022/06/03 07:51:52;;;;;;;;;;;;;;;9.22;89.83;99520.66;6250469;22;19911;-88
2022/06/03 07:54:28;;;;;;;;;;;;;;;9.16;89.75;99526.19;6213297;23;20165;-90
2022/06/03 07:57:00;;;;;;;;;;;;;;;9.25;90.13;99520.53;6244572;22;19915;-91
2022/06/03 07:59:30;;;;;;;;;;;;;;;9.14;90.01;99521.88;6282073;22;19922;-90
2022/06/03 08:02:00;;;;;;;;;;;;;;;9.05;90.43;99516.03;6307866;22;19938;-84
2022/06/03 08:04:30;;;;;;;;;;;;;;;9.13;90.81;99525.44;6279330;22;19982;-85
2022/06/03 08:12:34;;;;;;;;;;;;;;;9.66;91.25;99524.97;6307855;22;19922;-87
2022/06/03 08:18:15;;;;;;;;;;;;;;;10.79;98.74;99527.84;6204718;23;19932;-86
2022/06/03 08:20:47;;;;;;;;;;;;;;;10.01;99.54;99530.50;6280125;22;19917;-83
2022/06/03 08:23:14;;;;;;;;;;;;;;;10.08;100.00;99523.97;6306969;22;20250;-90
2022/06/03 08:25:41;;;;;;;;;;;;;;;10.28;100.00;99517.78;6307584;22;19938;-84
2022/06/03 08:28:31;;;;;;;;;;;;;;;9.99;100.00;99525.25;6307862;22;19978;-89
2022/06/03 08:30:57;;;;;;;;;;;;;;;9.94;100.00;99529.91;6306261;22;19914;-85
2022/06/03 08:33:41;;;;;;;;;;;;;;;10.32;100.00;99529.09;6306448;22;19914;-88
2022/06/03 08:36:13;;;;;;;;;;;;;;;10.57;100.00;99534.16;6307532;22;19938;-91
2022/06/03 08:38:41;;;;;;;;;;;;;;;10.92;100.00;99531.63;6281046;22;19942;-85
2022/06/03 08:41:17;;;;;;;;;;;;;;;12.45;100.00;99524.69;6309009;22;19911;-87
2022/06/03 08:43:45;;;;;;;;;;;;;;;11.99;99.82;99509.41;6307591;22;20238;-84
2022/06/03 08:46:15;;;;;;;;;;;;;;;11.29;100.00;99516.53;6307422;22;19964;-83
2022/06/03 08:48:42;;;;;;;;;;;;;;;11.26;100.00;99519.34;6305858;22;19946;-86
2022/06/03 08:51:27;;;;;;;;;;;;;;;10.53;100.00;99516.69;6279957;22;19926;-84
2022/06/03 08:53:58;;;;;;;;;;;;;;;10.23;100.00;99511.84;6307271;22;19911;-85
2022/06/03 08:56:28;;;;;;;;;;;;;;;10.11;100.00;99528.28;6307312;22;19911;-84
2022/06/03 08:58:56;;;;;;;;;;;;;;;9.97;99.21;99519.19;6307763;22;19942;-86
2022/06/03 09:01:40;;;;;;;;;;;;;;;10.20;99.82;99522.59;6307463;22;19925;-83
2022/06/03 09:04:11;;;;;;;;;;;;;;;10.59;100.00;99520.84;6306105;22;19976;-85
2022/06/03 09:06:39;;;;;;;;;;;;;;;11.20;100.00;99512.56;6307388;22;19915;-86
2022/06/03 09:09:17;;;;;;;;;;;;;;;11.16;100.00;99504.84;6307238;22;19915;-88
2022/06/03 09:11:51;;;;;;;;;;;;;;;11.97;100.00;99505.16;6307136;22;20234;-83
2022/06/03 09:14:22;;;;;;;;;;;;;;;10.92;100.00;99507.75;6306893;22;19917;-84
2022/06/03 09:16:49;;;;;;;;;;;;;;;11.05;100.00;99500.91;6279303;22;19914;-85
2022/06/03 09:19:19;;;;;;;;;;;;;;;11.02;100.00;99493.09;6305331;22;19929;-84
2022/06/03 09:21:51;;;;;;;;;;;;;;;10.57;100.00;99489.13;6306907;22;19918;-88
2022/06/03 09:24:20;;;;;;;;;;;;;;;10.90;100.00;99483.13;6279640;22;19915;-89
2022/06/03 09:26:49;;;;;;;;;;;;;;;11.07;100.00;99491.13;6306776;22;19911;-87
2022/06/03 09:29:15;;;;;;;;;;;;;;;10.60;100.00;99480.19;6279940;22;20276;-87
2022/06/03 09:31:46;;;;;;;;;;;;;;;10.87;100.00;99476.19;6306919;22;19989;-87
2022/06/03 09:34:12;;;;;;;;;;;;;;;11.07;100.00;99474.31;6305471;22;19919;-86
2022/06/03 09:36:37;;;;;;;;;;;;;;;10.57;100.00;99480.31;6307295;22;19971;-86
2022/06/03 09:39:08;;;;;;;;;;;;;;;10.90;100.00;99481.34;6279617;22;19911;-88
2022/06/03 09:41:38;;;;;;;;;;;;;;;11.14;100.00;99475.75;6280140;22;19907;-88
2022/06/03 09:44:05;;;;;;;;;;;;;;;10.54;100.00;99470.72;6306640;22;19914;-88
2022/06/03 09:46:32;;;;;;;;;;;;;;;10.90;100.00;99476.03;6279878;22;20280;-90
2022/06/03 09:48:58;;;;;;;;;;;;;;;11.09;100.00;99486.59;6278094;22;19918;-89
2022/06/03 09:52:03;;;;;;;;;;;;;;;10.56;100.00;99484.75;6307613;22;20311;-88
2022/06/03 09:54:31;;;;;;;;;;;;;;;11.00;100.00;99489.69;6192408;22;19912;-88
2022/06/03 09:57:18;;;;;;;;;;;;;;;11.08;100.00;99486.66;6306786;22;19918;-91
2022/06/03 10:00:04;;;;;;;;;;;;;;;10.64;100.00;99485.25;6279357;22;19918;-89
2022/06/03 10:02:30;;;;;;;;;;;;;;;11.08;100.00;99494.63;6279860;22;19964;-93
2022/06/03 10:04:56;;;;;;;;;;;;;;;11.03;100.00;99494.00;6277654;22;19911;-90
2022/06/03 10:07:25;;;;;;;;;;;;;;;10.76;100.00;99490.91;6300178;22;20335;-90
2022/06/03 10:15:43;;;;;;;;;;;;;;;10.83;100.00;99487.00;6286142;22;19911;-89
2022/06/03 10:18:20;;;;;;;;;;;;;;;11.16;100.00;99489.78;6248578;22;20331;-89
2022/06/03 10:24:14;;;;;;;;;;;;;;;11.03;100.00;99484.22;6211037;23;19912;-91
2022/06/03 10:26:43;;;;;;;;;;;;;;;11.18;100.00;99487.06;6273606;22;19918;-90
2022/06/03 10:29:13;;;;;;;;;;;;;;;10.70;100.00;99478.78;6275512;22;20398;-89
2022/06/03 10:31:46;;;;;;;;;;;;;;;11.14;100.00;99477.56;6249146;22;20231;-88
2022/06/03 10:34:20;;;;;;;;;;;;;;;11.15;100.00;99479.25;6247139;22;20258;-87
2022/06/03 10:40:08;;;;;;;;;;;;;;;11.26;100.00;99468.97;6207739;22;19915;-91
2022/06/03 10:48:34;;;;;;;;;;;;;;;11.35;100.00;99463.19;6277322;22;19923;-90
2022/06/03 11:02:34;;;;;;;;;;;;;;;11.37;100.00;99445.41;6277524;22;19942;-89
2022/06/03 11:05:11;;;;;;;;;;;;;;;10.91;100.00;99447.72;6248825;22;20332;-90
2022/06/03 11:07:36;;;;;;;;;;;;;;;11.20;100.00;99440.09;6250438;22;19919;-90
2022/06/03 11:10:13;;;;;;;;;;;;;;;11.37;100.00;99426.81;6250330;22;19976;-90
2022/06/03 11:12:40;;;;;;;;;;;;;;;10.89;100.00;99433.69;6277091;22;19915;-90
2022/06/03 11:18:19;;;;;;;;;;;;;;;11.42;100.00;99429.25;6314542;22;19930;-90
2022/06/03 11:20:46;;;;;;;;;;;;;;;10.80;100.00;99427.06;6311796;22;19911;-92
2022/06/03 11:23:36;;;;;;;;;;;;;;;11.26;100.00;99421.22;6312340;22;19918;-88
2022/06/03 11:26:04;;;;;;;;;;;;;;;11.38;100.00;99433.00;6311137;22;19956;-90
2022/06/03 11:29:02;;;;;;;;;;;;;;;10.99;100.00;99434.97;6311901;22;19914;-91
2022/06/03 11:31:30;;;;;;;;;;;;;;;11.34;100.00;99434.94;6286946;22;19914;-91
2022/06/03 11:34:06;;;;;;;;;;;;;;;11.22;100.00;99435.59;6338154;22;20035;-89
2022/06/03 11:36:34;;;;;;;;;;;;;;;11.13;100.00;99428.94;6312730;22;19942;-90
2022/06/03 11:39:20;;;;;;;;;;;;;;;11.45;100.00;99437.91;6312319;22;19918;-91
2022/06/03 11:42:00;;;;;;;;;;;;;;;11.11;100.00;99429.97;6311966;22;19946;-86
2022/06/03 11:44:59;;;;;;;;;;;;;;;11.33;100.00;99433.25;6339022;22;19933;-90
2022/06/03 11:50:42;;;;;;;;;;;;;;;11.17;100.00;99442.91;6337497;22;19997;-87
2022/06/03 11:53:10;;;;;;;;;;;;;;;11.44;100.00;99446.81;6339000;22;19911;-93
2022/06/03 11:55:37;;;;;;;;;;;;;;;11.14;100.00;99449.22;6311715;22;20342;-87
2022/06/03 11:58:02;;;;;;;;;;;;;;;11.23;100.00;99455.84;6339310;22;19922;-93
2022/06/03 12:00:31;;;;;;;;;;;;;;;11.48;100.00;99457.25;6338949;22;19911;-86
2022/06/03 12:03:23;;;;;;;;;;;;;;;11.19;100.00;99468.41;6338926;22;19914;-87
2022/06/03 12:05:53;;;;;;;;;;;;;;;11.42;100.00;99475.22;6311540;22;19911;-86
2022/06/03 12:08:37;;;;;;;;;;;;;;;11.60;100.00;99484.00;6338833;22;19946;-89
2022/06/03 12:11:06;;;;;;;;;;;;;;;11.11;100.00;99488.31;6339085;22;19918;-93
2022/06/03 12:13:32;;;;;;;;;;;;;;;11.51;100.00;99495.09;6338943;22;19914;-90
2022/06/03 12:16:07;;;;;;;;;;;;;;;11.39;100.00;99504.56;6339175;22;19945;-89
2022/06/03 12:19:11;;;;;;;;;;;;;;;11.09;100.00;99518.41;6279697;22;19915;-93
2022/06/03 12:22:11;;;;;;;;;;;;;;;11.51;100.00;99523.44;6283260;22;20373;-90
2022/06/03 12:27:42;;;;;;;;;;;;;;;11.36;100.00;99544.50;6307745;22;19985;-92
2022/06/03 12:30:33;;;;;;;;;;;;;;;11.54;100.00;99550.66;6279097;22;19911;-92
2022/06/03 12:33:20;;;;;;;;;;;;;;;11.06;100.00;99558.31;6307433;22;19993;-91
2022/06/03 12:36:17;;;;;;;;;;;;;;;11.45;100.00;99557.31;6275924;22;19957;-90
2022/06/03 12:42:51;;;;;;;;;;;;;;;11.26;100.00;99553.81;6212086;23;19991;-88
2022/06/03 12:48:45;;;;;;;;;;;;;;;11.10;100.00;99559.03;6306044;22;19918;-90
2022/06/03 12:51:17;;;;;;;;;;;;;;;11.52;100.00;99554.31;6307990;22;19942;-88
2022/06/03 12:53:44;;;;;;;;;;;;;;;11.39;100.00;99560.25;6307311;22;19922;-90
2022/06/03 12:56:28;;;;;;;;;;;;;;;11.28;100.00;99557.28;6308652;22;20350;-93
2022/06/03 13:02:00;;;;;;;;;;;;;;;11.14;100.00;99565.91;6307639;22;20259;-88
2022/06/03 13:04:26;;;;;;;;;;;;;;;11.55;100.00;99556.81;6305687;22;20041;-88
2022/06/03 13:07:09;;;;;;;;;;;;;;;11.60;100.00;99554.81;6308015;22;19969;-90
2022/06/03 13:09:55;;;;;;;;;;;;;;;11.34;100.00;99551.66;6306806;22;19997;-89
2022/06/03 13:15:11;;;;;;;;;;;;;;;11.42;100.00;99541.53;6295890;22;20070;-89
2022/06/03 13:20:30;;;;;;;;;;;;;;;11.75;100.00;99539.91;6321395;22;20260;-93
2022/06/03 13:22:58;;;;;;;;;;;;;;;11.27;100.00;99543.16;6279946;22;19911;-89
2022/06/03 13:25:25;;;;;;;;;;;;;;;11.64;100.00;99537.78;6279791;22;19918;-89
2022/06/03 13:28:07;;;;;;;;;;;;;;;11.59;100.00;99547.78;6307026;22;19972;-88
2022/06/03 13:30:34;;;;;;;;;;;;;;;11.35;100.00;99541.91;6279868;22;19918;-89
2022/06/03 13:33:00;;;;;;;;;;;;;;;11.68;100.00;99536.69;6306807;22;19969;-89
2022/06/03 13:35:30;;;;;;;;;;;;;;;11.50;100.00;99535.81;6305542;22;19915;-89
2022/06/03 13:38:01;;;;;;;;;;;;;;;11.44;100.00;99534.34;6306912;22;20033;-91
2022/06/03 13:40:31;;;;;;;;;;;;;;;11.82;100.00;99536.84;6306808;22;19989;-89
2022/06/03 13:42:59;;;;;;;;;;;;;;;11.36;100.00;99523.28;6279850;22;19968;-89
2022/06/03 13:45:44;;;;;;;;;;;;;;;11.56;100.00;99519.59;6279689;22;19911;-88
2022/06/03 13:48:11;;;;;;;;;;;;;;;11.84;100.00;99509.34;6279734;22;19918;-88
2022/06/03 13:50:41;;;;;;;;;;;;;;;11.36;100.00;99511.78;6278263;22;19938;-88
2022/06/03 13:53:10;;;;;;;;;;;;;;;11.73;100.00;99504.63;6279534;22;20398;-87
2022/06/03 13:55:49;;;;;;;;;;;;;;;11.86;100.00;99500.38;6306540;22;19915;-89
2022/06/03 13:58:14;;;;;;;;;;;;;;;11.53;100.00;99511.78;6306600;22;19911;-90
2022/06/03 14:00:49;;;;;;;;;;;;;;;11.85;100.00;99503.09;6279665;22;19945;-89
2022/06/03 14:03:17;;;;;;;;;;;;;;;11.70;100.00;99495.00;6280597;22;19919;-88
2022/06/03 14:05:44;;;;;;;;;;;;;;;11.59;100.00;99494.72;6305433;22;19911;-91
2022/06/03 14:08:18;;;;;;;;;;;;;;;11.98;100.00;99498.88;6279344;22;19915;-88
2022/06/03 14:11:06;;;;;;;;;;;;;;;11.47;100.00;99495.34;6306890;22;19942;-87
2022/06/03 14:13:51;;;;;;;;;;;;;;;11.81;100.00;99497.09;6279438;22;20243;-87
2022/06/03 14:16:20;;;;;;;;;;;;;;;11.91;100.00;99486.84;6279615;22;20231;-90
2022/06/03 14:18:51;;;;;;;;;;;;;;;11.58;100.00;99491.22;6305396;22;19966;-89
2022/06/03 14:21:39;;;;;;;;;;;;;;;11.92;100.00;99496.59;6306818;22;19915;-89
2022/06/03 14:24:05;;;;;;;;;;;;;;;11.85;100.00;99498.66;6297511;22;19913;-89
2022/06/03 14:26:37;;;;;;;;;;;;;;;11.74;100.00;99503.66;6279225;22;19921;-89
2022/06/03 14:29:09;;;;;;;;;;;;;;;12.09;100.00;99507.13;6279028;22;20424;-90
2022/06/03 14:31:36;;;;;;;;;;;;;;;11.57;100.00;99518.66;6306308;22;19946;-89
2022/06/03 14:34:12;;;;;;;;;;;;;;;11.80;100.00;99528.09;6304983;22;19957;-93
2022/06/03 14:36:37;;;;;;;;;;;;;;;12.01;100.00;99543.84;6306437;22;19911;-90
2022/06/03 14:39:10;;;;;;;;;;;;;;;11.54;100.00;99548.00;6306376;22;19969;-90
2022/06/03 14:41:37;;;;;;;;;;;;;;;11.92;100.00;99542.56;6306307;22;20231;-89
2022/06/03 14:44:10;;;;;;;;;;;;;;;11.86;100.00;99537.53;6306131;22;20052;-90
2022/06/03 14:46:39;;;;;;;;;;;;;;;11.67;100.00;99542.94;6306722;22;20380;-88
2022/06/03 14:49:10;;;;;;;;;;;;;;;11.99;100.00;99543.94;6277479;22;19907;-90
2022/06/03 14:51:35;;;;;;;;;;;;;;;11.81;100.00;99547.53;6306088;22;19999;-87
2022/06/03 14:54:03;;;;;;;;;;;;;;;11.73;100.00;99549.75;6306471;22;20282;-88
2022/06/03 14:56:35;;;;;;;;;;;;;;;12.13;100.00;99551.19;6306646;22;19911;-89
2022/06/03 14:59:20;;;;;;;;;;;;;;;11.65;100.00;99555.44;6306488;22;19945;-90
2022/06/03 15:01:57;;;;;;;;;;;;;;;11.93;100.00;99556.69;6276977;22;19921;-89
2022/06/03 15:04:28;;;;;;;;;;;;;;;12.08;100.00;99547.06;6304690;22;19959;-89
2022/06/03 15:06:59;;;;;;;;;;;;;;;11.59;100.00;99550.44;6279293;22;19972;-89
2022/06/03 15:09:29;;;;;;;;;;;;;;;11.96;100.00;99548.56;6306060;22;20226;-88
2022/06/03 15:11:59;;;;;;;;;;;;;;;12.04;100.00;99546.34;6278963;22;19935;-88
2022/06/03 15:14:25;;;;;;;;;;;;;;;11.61;100.00;99565.31;6306188;22;19989;-88
2022/06/03 15:16:54;;;;;;;;;;;;;;;12.01;100.00;99566.91;6278964;22;19911;-89
2022/06/03 15:19:37;;;;;;;;;;;;;;;11.95;100.00;99568.06;6277614;22;19918;-90
2022/06/03 15:22:05;;;;;;;;;;;;;;;11.65;100.00;99571.34;6306101;22;19914;-89
2022/06/03 15:24:31;;;;;;;;;;;;;;;12.03;100.00;99565.91;6306486;22;20327;-89
2022/06/03 15:26:57;;;;;;;;;;;;;;;11.86;100.00;99565.88;6278681;22;19942;-90
2022/06/03 15:29:26;;;;;;;;;;;;;;;11.67;100.00;99573.94;6278830;22;19918;-90
2022/06/03 15:31:54;;;;;;;;;;;;;;;12.02;100.00;99572.13;6307106;22;20280;-90
2022/06/03 15:34:20;;;;;;;;;;;;;;;11.83;100.00;99574.84;6279108;22;19915;-91
2022/06/03 15:36:47;;;;;;;;;;;;;;;11.66;100.00;99581.00;6308048;22;20004;-88
2022/06/03 15:39:26;;;;;;;;;;;;;;;12.08;100.00;99584.25;6308901;22;19942;-89
2022/06/03 15:41:53;;;;;;;;;;;;;;;11.68;100.00;99587.13;6280871;22;20220;-94
2022/06/03 15:44:33;;;;;;;;;;;;;;;11.70;100.00;99579.94;6307890;22;19915;-96
2022/06/03 15:47:02;;;;;;;;;;;;;;;12.09;100.00;99565.56;6308444;22;19918;-89
2022/06/03 15:49:30;;;;;;;;;;;;;;;11.68;100.00;99571.19;6279228;22;19911;-89
2022/06/03 15:51:56;;;;;;;;;;;;;;;11.75;100.00;99572.59;6308150;22;19922;-90
2022/06/03 15:54:24;;;;;;;;;;;;;;;12.15;100.00;99562.56;6280574;22;19911;-90
2022/06/03 15:56:56;;;;;;;;;;;;;;;11.65;100.00;99568.69;6281046;22;20325;-90
2022/06/03 15:59:36;;;;;;;;;;;;;;;11.91;100.00;99551.41;6280862;22;19911;-90
2022/06/03 16:02:12;;;;;;;;;;;;;;;12.16;100.00;99553.69;6307853;22;19956;-91
2022/06/03 16:04:38;;;;;;;;;;;;;;;11.63;100.00;99546.66;6305846;22;20323;-91
2022/06/03 16:07:19;;;;;;;;;;;;;;;11.93;100.00;99554.03;6281772;22;19939;-90
2022/06/03 16:10:24;;;;;;;;;;;;;;;12.18;100.00;99542.97;6307823;22;19914;-88
2022/06/03 16:13:07;;;;;;;;;;;;;;;11.74;100.00;99539.03;6308137;22;19965;-90
2022/06/03 16:15:42;;;;;;;;;;;;;;;12.11;100.00;99530.94;6280160;22;19910;-91
2022/06/03 16:18:51;;;;;;;;;;;;;;;11.86;100.00;99542.00;6306228;22;20013;-88
2022/06/03 16:21:08;;;;;;;;;;;;;;;12.03;100.00;99534.03;6299999;22;19918;-89
2022/06/03 16:23:52;;;;;;;;;;;;;;;12.33;100.00;99522.69;6307403;22;19953;-88
2022/06/03 16:26:38;;;;;;;;;;;;;;;11.84;100.00;99525.25;6280899;22;19941;-89
2022/06/03 16:29:04;;;;;;;;;;;;;;;12.20;100.00;99519.84;6307407;22;19946;-90
2022/06/03 16:31:35;;;;;;;;;;;;;;;12.13;100.00;99514.00;6280123;22;19914;-92
2022/06/03 16:34:12;;;;;;;;;;;;;;;12.03;100.00;99515.44;6305351;22;19919;-91
2022/06/03 16:36:44;;;;;;;;;;;;;;;12.38;100.00;99511.81;6280656;22;19911;-91
2022/06/03 16:39:41;;;;;;;;;;;;;;;12.00;100.00;99507.66;6306632;22;19915;-89
2022/06/03 16:42:19;;;;;;;;;;;;;;;12.26;100.00;99502.72;6306144;22;19918;-89
2022/06/03 16:44:56;;;;;;;;;;;;;;;12.30;100.00;99498.94;6279547;22;20006;-90
2022/06/03 16:47:24;;;;;;;;;;;;;;;12.02;100.00;99500.44;6306701;22;19998;-91
2022/06/03 16:50:01;;;;;;;;;;;;;;;12.35;100.00;99488.94;6277827;22;19918;-90
2022/06/03 16:52:34;;;;;;;;;;;;;;;12.17;100.00;99496.97;6280337;22;19915;-93
2022/06/03 16:55:03;;;;;;;;;;;;;;;12.15;100.00;99490.88;6279810;22;20037;-90
2022/06/03 16:57:30;;;;;;;;;;;;;;;12.52;100.00;99485.34;6278702;22;19911;-89
2022/06/03 17:00:09;;;;;;;;;;;;;;;12.01;100.00;99490.75;6280521;22;19993;-89
2022/06/03 17:02:34;;;;;;;;;;;;;;;12.33;100.00;99493.47;6280072;22;19923;-88
2022/06/03 17:04:59;;;;;;;;;;;;;;;12.49;100.00;99498.78;6305489;22;19919;-89
2022/06/03 17:07:31;;;;;;;;;;;;;;;11.98;100.00;99504.19;6280263;22;20314;-90
2022/06/03 17:09:56;;;;;;;;;;;;;;;12.39;100.00;99497.59;6279578;22;19918;-90
2022/06/03 17:12:21;;;;;;;;;;;;;;;12.37;100.00;99499.50;6306461;22;19915;-90
2022/06/03 17:14:49;;;;;;;;;;;;;;;12.07;100.00;99501.06;6279727;22;20001;-90
2022/06/03 17:17:19;;;;;;;;;;;;;;;12.39;100.00;99502.91;6307486;22;19964;-88
2022/06/03 17:19:46;;;;;;;;;;;;;;;12.31;100.00;99505.97;6304677;22;19911;-89
2022/06/03 17:22:21;;;;;;;;;;;;;;;12.18;100.00;99505.78;6280725;22;19933;-91
2022/06/03 17:24:55;;;;;;;;;;;;;;;12.51;100.00;99496.94;6221160;23;19923;-88
2022/06/03 17:27:29;;;;;;;;;;;;;;;12.17;100.00;99491.66;6217509;23;20320;-88
2022/06/03 17:30:04;;;;;;;;;;;;;;;12.38;100.00;99491.44;6218820;23;19911;-90
2022/06/03 17:32:32;;;;;;;;;;;;;;;12.50;100.00;99495.22;6218326;23;19911;-90
2022/06/03 17:35:06;;;;;;;;;;;;;;;12.07;100.00;99495.75;6242374;23;19915;-89
2022/06/03 17:37:50;;;;;;;;;;;;;;;12.48;100.00;99494.44;6218947;23;19912;-90
2022/06/03 17:40:34;;;;;;;;;;;;;;;12.29;100.00;99491.94;6217752;23;19935;-89
2022/06/03 17:43:08;;;;;;;;;;;;;;;12.26;100.00;99489.44;6217669;23;19924;-88
2022/06/03 17:45:52;;;;;;;;;;;;;;;12.62;100.00;99477.72;6244865;23;20398;-90
2022/06/03 17:48:25;;;;;;;;;;;;;;;12.09;100.00;99495.66;6218542;23;19916;-91
2022/06/03 17:51:02;;;;;;;;;;;;;;;12.53;100.00;99479.09;6243176;23;20003;-88
2022/06/03 17:56:33;;;;;;;;;;;;;;;12.29;100.00;99482.16;6245280;23;19935;-89
2022/06/03 17:58:58;;;;;;;;;;;;;;;12.60;100.00;99491.06;6244956;23;20411;-89
2022/06/03 18:01:26;;;;;;;;;;;;;;;12.10;100.00;99484.97;6245094;23;19947;-89
2022/06/03 18:04:10;;;;;;;;;;;;;;;12.43;100.00;99484.06;6243353;23;19915;-88
2022/06/03 18:06:44;;;;;;;;;;;;;;;12.38;100.00;99496.75;6244987;23;19923;-88
2022/06/03 18:09:32;;;;;;;;;;;;;;;12.23;100.00;99493.13;6245546;23;20010;-90
2022/06/03 18:12:08;;;;;;;;;;;;;;;12.57;100.00;99485.09;6243315;23;19951;-88
2022/06/03 18:14:35;;;;;;;;;;;;;;;12.17;100.00;99478.38;6245122;23;19912;-89
2022/06/03 18:17:15;;;;;;;;;;;;;;;12.36;100.00;99477.34;6244863;23;20247;-89
2022/06/03 18:19:42;;;;;;;;;;;;;;;12.60;100.00;99474.28;6243495;23;19996;-89
2022/06/03 18:22:07;;;;;;;;;;;;;;;12.11;100.00;99473.41;6244866;22;19922;-89
2022/06/03 18:24:35;;;;;;;;;;;;;;;12.50;100.00;99477.44;6218137;23;19915;-90
2022/06/03 18:27:03;;;;;;;;;;;;;;;12.39;100.00;99471.88;6244922;23;19947;-90
2022/06/03 18:29:41;;;;;;;;;;;;;;;12.21;100.00;99471.09;6244552;23;19908;-92
2022/06/03 18:32:25;;;;;;;;;;;;;;;12.54;100.00;99480.81;6217645;23;20331;-88
2022/06/03 18:34:51;;;;;;;;;;;;;;;12.12;100.00;99475.09;6216784;23;19907;-89
2022/06/03 18:37:22;;;;;;;;;;;;;;;12.34;100.00;99472.13;6218316;23;20403;-90
2022/06/03 18:40:09;;;;;;;;;;;;;;;12.61;100.00;99468.88;6245014;23;20244;-89
2022/06/03 18:43:02;;;;;;;;;;;;;;;12.21;100.00;99468.44;6245182;23;19912;-89
2022/06/03 18:45:39;;;;;;;;;;;;;;;12.58;100.00;99471.72;6244940;23;19927;-89
2022/06/03 18:48:14;;;;;;;;;;;;;;;12.24;100.00;99483.34;6243596;23;19957;-89
2022/06/03 18:50:43;;;;;;;;;;;;;;;12.45;100.00;99473.34;6243595;23;19915;-90
2022/06/03 18:53:11;;;;;;;;;;;;;;;12.64;100.00;99470.53;6245395;23;20325;-89
2022/06/03 18:55:41;;;;;;;;;;;;;;;12.25;100.00;99475.28;6217571;23;19911;-87
2022/06/03 18:58:13;;;;;;;;;;;;;;;12.54;100.00;99472.84;6243424;23;20335;-88
2022/06/03 19:00:41;;;;;;;;;;;;;;;12.38;100.00;99472.84;6244779;23;19943;-90
2022/06/03 19:03:18;;;;;;;;;;;;;;;12.31;100.00;99468.78;6243550;23;19916;-90
2022/06/03 19:05:45;;;;;;;;;;;;;;;12.67;100.00;99471.19;6218142;23;20030;-89
2022/06/03 19:08:30;;;;;;;;;;;;;;;12.17;100.00;99473.06;6246753;23;19911;-90
2022/06/03 19:11:17;;;;;;;;;;;;;;;12.53;100.00;99479.94;6247121;23;19954;-93
2022/06/03 19:13:55;;;;;;;;;;;;;;;12.51;100.00;99476.53;6288521;22;19919;-88
2022/06/03 19:16:23;;;;;;;;;;;;;;;12.29;100.00;99478.66;6281251;22;20289;-85
2022/06/03 19:19:08;;;;;;;;;;;;;;;12.67;100.00;99481.00;6279419;22;19918;-89
2022/06/03 19:21:46;;;;;;;;;;;;;;;12.26;100.00;99486.78;6281090;22;19922;-89
2022/06/03 19:24:17;;;;;;;;;;;;;;;12.53;100.00;99487.06;6308615;22;19914;-90
2022/06/03 19:26:48;;;;;;;;;;;;;;;12.69;100.00;99489.72;6308475;22;19914;-90
2022/06/03 19:29:24;;;;;;;;;;;;;;;12.20;100.00;99492.44;6281028;22;19945;-89
2022/06/03 19:31:56;;;;;;;;;;;;;;;12.54;100.00;99481.66;6308907;22;19911;-89
2022/06/03 19:34:39;;;;;;;;;;;;;;;12.54;100.00;99486.13;6306975;22;19997;-89
2022/06/03 19:37:44;;;;;;;;;;;;;;;12.39;100.00;99486.97;6280953;22;19933;-88
2022/06/03 19:40:22;;;;;;;;;;;;;;;12.75;100.00;99493.81;6213331;23;19995;-91
2022/06/03 19:42:53;;;;;;;;;;;;;;;12.32;100.00;99497.09;6213353;23;19912;-88
2022/06/03 19:45:25;;;;;;;;;;;;;;;12.63;100.00;99501.53;6308035;22;19985;-90
2022/06/03 19:48:09;;;;;;;;;;;;;;;12.52;100.00;99503.94;6280443;22;19911;-96
2022/06/03 19:51:00;;;;;;;;;;;;;;;12.47;100.00;99512.16;6306939;22;19919;-90
2022/06/03 19:53:37;;;;;;;;;;;;;;;12.78;100.00;99505.16;6281913;22;19945;-94
2022/06/03 19:56:11;;;;;;;;;;;;;;;12.34;100.00;99513.78;6280380;22;19915;-88
2022/06/03 19:58:36;;;;;;;;;;;;;;;12.75;100.00;99515.97;6308272;22;19979;-90
2022/06/03 20:01:11;;;;;;;;;;;;;;;12.54;100.00;99518.88;6308093;22;20343;-89
2022/06/03 20:03:40;;;;;;;;;;;;;;;12.49;100.00;99531.56;6306255;22;20036;-88
2022/06/03 20:06:16;;;;;;;;;;;;;;;12.85;100.00;99529.59;6307590;22;19919;-89
2022/06/03 20:08:52;;;;;;;;;;;;;;;12.37;100.00;99520.75;6308080;22;19911;-88
2022/06/03 20:14:15;;;;;;;;;;;;;;;12.53;100.00;99538.41;6307666;22;20334;-91
2022/06/03 20:16:52;;;;;;;;;;;;;;;12.59;100.00;99541.66;6280775;22;19911;-89
2022/06/03 20:19:20;;;;;;;;;;;;;;;12.85;100.00;99554.38;6306560;22;19915;-90
2022/06/03 20:21:47;;;;;;;;;;;;;;;12.33;100.00;99557.22;6307056;22;19914;-89
2022/06/03 20:24:38;;;;;;;;;;;;;;;12.68;100.00;99565.09;6307634;22;19911;-87
2022/06/03 20:27:23;;;;;;;;;;;;;;;12.71;100.00;99567.56;6280243;22;19915;-88
2022/06/03 20:30:12;;;;;;;;;;;;;;;12.62;100.00;99576.03;6307611;22;19964;-89
2022/06/03 20:32:48;;;;;;;;;;;;;;;12.89;100.00;99574.53;6294672;22;19993;-89
2022/06/03 20:35:27;;;;;;;;;;;;;;;14.75;100.00;99563.63;6278878;22;20280;-87
2022/06/03 20:38:17;;;;;;;;;;;;;;;13.93;100.00;99561.47;6307570;22;19918;-90
2022/06/03 20:41:01;;;;;;;;;;;;;;;13.28;100.00;99561.72;6308077;22;19911;-89
2022/06/03 20:43:38;;;;;;;;;;;;;;;13.20;100.00;99563.97;6307336;22;19911;-89
2022/06/03 20:46:12;;;;;;;;;;;;;;;13.33;100.00;99577.47;6307975;22;19911;-91
2022/06/03 20:49:18;;;;;;;;;;;;;;;12.95;100.00;99575.97;6278791;22;19914;-86
2022/06/03 20:51:51;;;;;;;;;;;;;;;13.22;100.00;99565.56;6212587;23;19974;-89
2022/06/03 20:54:18;;;;;;;;;;;;;;;12.85;100.00;99570.31;6213216;23;19919;-89
2022/06/03 20:56:44;;;;;;;;;;;;;;;13.02;100.00;99573.84;6262824;22;19968;-87
2022/06/03 20:59:18;;;;;;;;;;;;;;;13.16;100.00;99560.63;6279730;22;19915;-87
2022/06/03 21:01:53;;;;;;;;;;;;;;;12.72;100.00;99569.31;6307265;22;20234;-87
2022/06/03 21:12:52;;;;;;;;;;;;;;;13.20;100.00;99564.81;6306907;22;20241;-88
2022/06/03 21:15:19;;;;;;;;;;;;;;;12.69;100.00;99580.09;6280239;22;20340;-86
2022/06/03 21:17:45;;;;;;;;;;;;;;;13.03;100.00;99579.06;6307291;22;19921;-86
2022/06/03 21:20:13;;;;;;;;;;;;;;;13.17;100.00;99582.75;6305765;22;19915;-87
2022/06/03 21:22:41;;;;;;;;;;;;;;;12.82;100.00;99581.13;6307749;22;19927;-88
2022/06/03 21:25:08;;;;;;;;;;;;;;;13.08;100.00;99582.34;6280286;22;19918;-87
2022/06/03 21:27:36;;;;;;;;;;;;;;;12.92;100.00;99586.78;6280213;22;19921;-87